sensor_id;sensor_type;location;lat;lon;timestamp;P1;durP1;ratioP1;P2;durP2;ratioP2
50086;SDS011;35967;50.718;7.050;2023-04-03T00:02:17;4.73;;;1.53;;
50086;SDS011;35967;50.718;7.050;2023-04-03T00:12:22;2.77;;;1.40;;
50086;SDS011;35967;50.718;7.050;2023-04-03T00:22:25;3.77;;;1.30;;
50086;SDS011;35967;50.718;7.050;2023-04-03T00:32:31;5.37;;;1.83;;
50086;SDS011;35967;50.718;7.050;2023-04-03T00:42:35;3.90;;;1.20;;
50086;SDS011;35967;50.718;7.050;2023-04-03T00:52:40;6.73;;;1.70;;
50086;SDS011;35967;50.718;7.050;2023-04-03T01:02:43;5.77;;;1.30;;
50086;SDS011;35967;50.718;7.050;2023-04-03T01:12:51;4.57;;;1.17;;
50086;SDS011;35967;50.718;7.050;2023-04-03T01:22:56;4.90;;;1.10;;
50086;SDS011;35967;50.718;7.050;2023-04-03T01:33:10;3.17;;;0.90;;
50086;SDS011;35967;50.718;7.050;2023-04-03T01:43:14;3.83;;;1.13;;
50086;SDS011;35967;50.718;7.050;2023-04-03T01:53:19;3.97;;;1.10;;
50086;SDS011;35967;50.718;7.050;2023-04-03T02:03:22;7.27;;;1.20;;
50086;SDS011;35967;50.718;7.050;2023-04-03T02:13:27;4.80;;;1.57;;
50086;SDS011;35967;50.718;7.050;2023-04-03T02:23:30;3.30;;;0.90;;
50086;SDS011;35967;50.718;7.050;2023-04-03T02:33:35;3.87;;;1.20;;
50086;SDS011;35967;50.718;7.050;2023-04-03T02:43:41;5.87;;;1.20;;
50086;SDS011;35967;50.718;7.050;2023-04-03T02:53:46;4.87;;;1.03;;
50086;SDS011;35967;50.718;7.050;2023-04-03T03:03:53;5.53;;;1.30;;
50086;SDS011;35967;50.718;7.050;2023-04-03T03:13:58;5.83;;;1.40;;
50086;SDS011;35967;50.718;7.050;2023-04-03T03:24:01;7.23;;;1.30;;
50086;SDS011;35967;50.718;7.050;2023-04-03T03:34:05;7.87;;;1.30;;
50086;SDS011;35967;50.718;7.050;2023-04-03T03:44:08;9.50;;;1.57;;
50086;SDS011;35967;50.718;7.050;2023-04-03T03:54:13;3.23;;;1.10;;
50086;SDS011;35967;50.718;7.050;2023-04-03T04:04:17;4.67;;;1.40;;
50086;SDS011;35967;50.718;7.050;2023-04-03T04:14:22;3.27;;;1.17;;
50086;SDS011;35967;50.718;7.050;2023-04-03T04:24:26;9.27;;;1.43;;
50086;SDS011;35967;50.718;7.050;2023-04-03T04:34:32;8.77;;;1.43;;
50086;SDS011;35967;50.718;7.050;2023-04-03T04:44:35;5.00;;;1.20;;
50086;SDS011;35967;50.718;7.050;2023-04-03T04:54:40;4.70;;;1.30;;
50086;SDS011;35967;50.718;7.050;2023-04-03T05:04:44;4.70;;;1.40;;
50086;SDS011;35967;50.718;7.050;2023-04-03T05:14:55;3.90;;;1.30;;
50086;SDS011;35967;50.718;7.050;2023-04-03T05:25:00;4.80;;;1.33;;
50086;SDS011;35967;50.718;7.050;2023-04-03T05:35:05;6.47;;;1.30;;
50086;SDS011;35967;50.718;7.050;2023-04-03T05:45:10;6.03;;;1.33;;
50086;SDS011;35967;50.718;7.050;2023-04-03T05:55:16;3.03;;;1.10;;
50086;SDS011;35967;50.718;7.050;2023-04-03T06:05:19;5.07;;;1.37;;
50086;SDS011;35967;50.718;7.050;2023-04-03T06:15:24;7.67;;;1.17;;
50086;SDS011;35967;50.718;7.050;2023-04-03T06:25:27;8.63;;;1.10;;
50086;SDS011;35967;50.718;7.050;2023-04-03T06:35:31;2.40;;;0.90;;
50086;SDS011;35967;50.718;7.050;2023-04-03T06:45:36;4.10;;;0.87;;
50086;SDS011;35967;50.718;7.050;2023-04-03T06:55:41;4.37;;;0.80;;
50086;SDS011;35967;50.718;7.050;2023-04-03T07:05:45;4.80;;;0.80;;
50086;SDS011;35967;50.718;7.050;2023-04-03T07:15:50;3.70;;;0.70;;
50086;SDS011;35967;50.718;7.050;2023-04-03T07:25:53;5.10;;;1.20;;
50086;SDS011;35967;50.718;7.050;2023-04-03T07:35:58;3.43;;;0.80;;
50086;SDS011;35967;50.718;7.050;2023-04-03T07:46:02;5.13;;;1.10;;
50086;SDS011;35967;50.718;7.050;2023-04-03T07:56:09;5.37;;;0.80;;
50086;SDS011;35967;50.718;7.050;2023-04-03T08:06:13;4.77;;;0.80;;
50086;SDS011;35967;50.718;7.050;2023-04-03T08:16:21;3.50;;;0.90;;
50086;SDS011;35967;50.718;7.050;2023-04-03T08:26:27;6.67;;;1.00;;
50086;SDS011;35967;50.718;7.050;2023-04-03T08:36:32;5.67;;;1.43;;
50086;SDS011;35967;50.718;7.050;2023-04-03T08:46:40;4.60;;;0.90;;
50086;SDS011;35967;50.718;7.050;2023-04-03T08:56:51;5.40;;;0.70;;
50086;SDS011;35967;50.718;7.050;2023-04-03T09:06:56;3.07;;;0.80;;
50086;SDS011;35967;50.718;7.050;2023-04-03T09:17:08;5.73;;;1.00;;
50086;SDS011;35967;50.718;7.050;2023-04-03T09:27:17;8.27;;;0.83;;
50086;SDS011;35967;50.718;7.050;2023-04-03T09:37:34;5.53;;;0.80;;
50086;SDS011;35967;50.718;7.050;2023-04-03T09:47:41;5.87;;;0.83;;
50086;SDS011;35967;50.718;7.050;2023-04-03T09:57:47;5.67;;;0.80;;
50086;SDS011;35967;50.718;7.050;2023-04-03T10:08:06;3.97;;;0.83;;
50086;SDS011;35967;50.718;7.050;2023-04-03T10:18:18;10.60;;;1.13;;
50086;SDS011;35967;50.718;7.050;2023-04-03T10:28:33;3.47;;;0.50;;
50086;SDS011;35967;50.718;7.050;2023-04-03T10:38:45;3.37;;;0.60;;
50086;SDS011;35967;50.718;7.050;2023-04-03T10:49:00;3.63;;;1.03;;
50086;SDS011;35967;50.718;7.050;2023-04-03T11:11:22;2.80;;;0.50;;
50086;SDS011;35967;50.718;7.050;2023-04-03T11:21:29;2.27;;;0.53;;
50086;SDS011;35967;50.718;7.050;2023-04-03T11:31:41;3.07;;;0.60;;
50086;SDS011;35967;50.718;7.050;2023-04-03T11:42:13;3.07;;;0.97;;
50086;SDS011;35967;50.718;7.050;2023-04-03T12:03:00;2.60;;;0.50;;
50086;SDS011;35967;50.718;7.050;2023-04-03T12:13:12;2.20;;;0.70;;
50086;SDS011;35967;50.718;7.050;2023-04-03T12:23:27;3.07;;;0.70;;
50086;SDS011;35967;50.718;7.050;2023-04-03T12:33:36;1.27;;;0.30;;
50086;SDS011;35967;50.718;7.050;2023-04-03T12:43:54;2.47;;;0.50;;
50086;SDS011;35967;50.718;7.050;2023-04-03T12:54:12;3.40;;;0.60;;
50086;SDS011;35967;50.718;7.050;2023-04-03T13:04:19;3.65;;;0.50;;
50086;SDS011;35967;50.718;7.050;2023-04-03T13:14:24;2.40;;;0.50;;
50086;SDS011;35967;50.718;7.050;2023-04-03T13:24:32;3.70;;;0.60;;
50086;SDS011;35967;50.718;7.050;2023-04-03T13:34:38;3.30;;;0.63;;
50086;SDS011;35967;50.718;7.050;2023-04-03T13:44:49;2.90;;;0.87;;
50086;SDS011;35967;50.718;7.050;2023-04-03T13:55:15;2.30;;;0.60;;
50086;SDS011;35967;50.718;7.050;2023-04-03T14:05:39;1.93;;;0.60;;
50086;SDS011;35967;50.718;7.050;2023-04-03T14:15:42;2.13;;;0.57;;
50086;SDS011;35967;50.718;7.050;2023-04-03T14:25:47;3.20;;;0.50;;
50086;SDS011;35967;50.718;7.050;2023-04-03T14:35:50;1.87;;;0.60;;
50086;SDS011;35967;50.718;7.050;2023-04-03T14:45:59;3.03;;;0.73;;
50086;SDS011;35967;50.718;7.050;2023-04-03T14:56:02;6.40;;;0.63;;
50086;SDS011;35967;50.718;7.050;2023-04-03T15:06:09;3.10;;;0.70;;
50086;SDS011;35967;50.718;7.050;2023-04-03T15:16:16;2.30;;;0.80;;
50086;SDS011;35967;50.718;7.050;2023-04-03T15:26:22;3.47;;;0.67;;
50086;SDS011;35967;50.718;7.050;2023-04-03T15:36:25;6.10;;;0.70;;
50086;SDS011;35967;50.718;7.050;2023-04-03T15:46:36;1.80;;;0.60;;
50086;SDS011;35967;50.718;7.050;2023-04-03T15:56:40;2.37;;;0.67;;
50086;SDS011;35967;50.718;7.050;2023-04-03T16:06:46;2.83;;;0.90;;
50086;SDS011;35967;50.718;7.050;2023-04-03T16:16:51;4.40;;;0.60;;
50086;SDS011;35967;50.718;7.050;2023-04-03T16:26:56;6.00;;;0.77;;
50086;SDS011;35967;50.718;7.050;2023-04-03T16:36:59;1.77;;;0.50;;
50086;SDS011;35967;50.718;7.050;2023-04-03T16:47:04;0.83;;;0.37;;
50086;SDS011;35967;50.718;7.050;2023-04-03T16:57:09;2.20;;;0.60;;
50086;SDS011;35967;50.718;7.050;2023-04-03T17:07:13;2.33;;;0.60;;
50086;SDS011;35967;50.718;7.050;2023-04-03T17:17:18;5.17;;;0.70;;
50086;SDS011;35967;50.718;7.050;2023-04-03T17:27:25;4.20;;;0.60;;
50086;SDS011;35967;50.718;7.050;2023-04-03T17:37:31;2.93;;;0.63;;
50086;SDS011;35967;50.718;7.050;2023-04-03T17:47:35;4.70;;;0.70;;
50086;SDS011;35967;50.718;7.050;2023-04-03T17:57:38;2.50;;;0.50;;
50086;SDS011;35967;50.718;7.050;2023-04-03T18:07:43;2.03;;;0.47;;
50086;SDS011;35967;50.718;7.050;2023-04-03T18:17:46;1.13;;;0.50;;
50086;SDS011;35967;50.718;7.050;2023-04-03T18:27:53;3.67;;;0.50;;
50086;SDS011;35967;50.718;7.050;2023-04-03T18:37:58;6.13;;;0.93;;
50086;SDS011;35967;50.718;7.050;2023-04-03T18:48:03;3.03;;;0.70;;
50086;SDS011;35967;50.718;7.050;2023-04-03T18:58:07;3.83;;;0.90;;
50086;SDS011;35967;50.718;7.050;2023-04-03T19:08:12;6.43;;;0.90;;
50086;SDS011;35967;50.718;7.050;2023-04-03T19:18:15;3.37;;;1.00;;
50086;SDS011;35967;50.718;7.050;2023-04-03T19:28:20;5.87;;;1.13;;
50086;SDS011;35967;50.718;7.050;2023-04-03T19:38:23;3.23;;;1.13;;
50086;SDS011;35967;50.718;7.050;2023-04-03T19:48:28;2.73;;;1.17;;
50086;SDS011;35967;50.718;7.050;2023-04-03T19:58:31;3.57;;;0.80;;
50086;SDS011;35967;50.718;7.050;2023-04-03T20:08:35;3.37;;;0.77;;
50086;SDS011;35967;50.718;7.050;2023-04-03T20:18:39;5.57;;;0.90;;
50086;SDS011;35967;50.718;7.050;2023-04-03T20:28:44;4.93;;;1.10;;
50086;SDS011;35967;50.718;7.050;2023-04-03T20:38:47;4.13;;;0.90;;
50086;SDS011;35967;50.718;7.050;2023-04-03T20:48:54;3.40;;;0.80;;
50086;SDS011;35967;50.718;7.050;2023-04-03T20:58:58;6.53;;;1.20;;
50086;SDS011;35967;50.718;7.050;2023-04-03T21:29:49;2.40;;;0.80;;
50086;SDS011;35967;50.718;7.050;2023-04-03T21:39:55;4.97;;;1.33;;
50086;SDS011;35967;50.718;7.050;2023-04-03T21:49:58;3.20;;;0.87;;
50086;SDS011;35967;50.718;7.050;2023-04-03T22:00:03;6.37;;;1.27;;
50086;SDS011;35967;50.718;7.050;2023-04-03T22:20:17;4.90;;;1.30;;
50086;SDS011;35967;50.718;7.050;2023-04-03T22:30:21;4.60;;;1.27;;
50086;SDS011;35967;50.718;7.050;2023-04-03T22:40:25;5.10;;;1.20;;
50086;SDS011;35967;50.718;7.050;2023-04-03T22:50:29;6.70;;;0.80;;
50086;SDS011;35967;50.718;7.050;2023-04-03T23:00:33;4.53;;;1.23;;
50086;SDS011;35967;50.718;7.050;2023-04-03T23:10:37;5.83;;;1.20;;
50086;SDS011;35967;50.718;7.050;2023-04-03T23:20:44;2.83;;;1.00;;
50086;SDS011;35967;50.718;7.050;2023-04-03T23:30:46;5.60;;;1.30;;
50086;SDS011;35967;50.718;7.050;2023-04-03T23:40:51;3.07;;;1.20;;
50086;SDS011;35967;50.718;7.050;2023-04-03T23:50:54;4.43;;;1.60;;
